Latest Weather Observations for Port Fairy

IDV60801

Issued at 3:05 pm EST Thursday 28 August 2014 (issued every 30 minutes, with the page automatically refreshed every 10 minutes)

About weather observations | Map of weather stations | Latest weather observations for VIC | Other Formats
Station Details ID: 090175 Name: PORT FAIRY AWS Lat: -38.39 Lon: 142.23 Height: 10.0 m
Data from the previous 72 hours. | See also: Recent months at Port Fairy
Date/Time
EST
Temp
°C
App
Temp
°C
Dew
Point
Rel
Hum
%
Delta-T
°C
Wind Press
QNH
hPa
Press
MSL
hPa
Rain
since 9 am
mm
Dir
 
Spd
km/h
Gust
km/h
Spd
kts
Gust
kts
28/03:00pm 15.0 14.3 10.2 73 2.5 SW 4 6 2 3 1027.3 1027.4 0.0
28/02:30pm 15.0 13.9 10.0 72 2.6 SW 6 9 3 5 1027.4 1027.5 0.0
28/02:00pm 16.2 14.6 11.6 74 2.5 SW 11 13 6 7 1027.4 1027.5 0.0
28/01:30pm 15.4 14.3 10.8 74 2.4 SSW 7 11 4 6 1027.6 1027.7 0.0
28/01:00pm 15.2 14.4 11.2 77 2.1 S 6 7 3 4 1027.6 1027.7 0.0
28/12:30pm 14.9 14.1 11.1 78 2.0 S 6 7 3 4 1028.1 1028.2 0.0
28/12:00pm 14.7 14.5 11.7 82 1.6 SSE 4 6 2 3 1028.6 1028.7 0.0
28/11:30am 14.1 13.8 11.6 85 1.3 S 4 6 2 3 1028.9 1029.0 0.0
28/11:00am 13.5 13.2 11.4 87 1.1 SSW 4 6 2 3 1029.0 1029.1 0.0
28/10:30am 13.4 13.1 11.5 88 1.0 SSW 4 6 2 3 1029.1 1029.2 0.0
28/10:00am 13.0 13.1 11.4 90 0.8 NW 2 4 1 2 1029.3 1029.4 0.0
28/09:30am 12.1 12.1 11.0 93 0.6 N 2 6 1 3 1029.3 1029.4 0.0
28/09:00am 10.3 9.8 9.4 94 0.4 NNW 2 4 1 2 1029.2 1029.3 0.2
28/08:30am 8.8 7.6 8.2 96 0.3 N 4 6 2 3 1029.2 1029.3 0.2
28/08:00am 7.3 5.4 6.7 96 0.3 N 6 6 3 3 1029.0 1029.1 0.2
28/07:30am 6.3 4.2 5.7 96 0.3 W 6 6 3 3 1028.6 1028.7 0.2
28/07:00am 6.3 4.9 5.7 96 0.3 NW 2 4 1 2 1028.5 1028.6 0.2
28/06:30am 5.9 4.1 5.3 96 0.3 NNW 4 4 2 2 1028.3 1028.4 0.2
28/06:00am 5.8 4.0 5.2 96 0.3 NW 4 6 2 3 1028.0 1028.1 0.2
28/05:30am 5.2 2.9 4.6 96 0.3 W 6 9 3 5 1027.8 1027.9 0.0
28/05:00am 6.3 3.6 5.7 96 0.3 N 9 13 5 7 1027.4 1027.5 0.0
28/04:30am 6.0 3.6 5.4 96 0.3 N 7 9 4 5 1027.5 1027.6 0.0
28/04:00am 6.3 3.6 5.7 96 0.3 N 9 11 5 6 1027.4 1027.5 0.0
28/03:30am 6.4 4.3 5.8 96 0.3 N 6 9 3 5 1027.5 1027.6 0.0
28/03:00am 6.8 4.6 6.2 96 0.3 N 7 9 4 5 1027.6 1027.7 0.0
28/02:30am 6.9 4.7 6.3 96 0.3 N 7 9 4 5 1027.9 1028.0 0.0
28/02:00am 7.3 5.2 6.7 96 0.3 N 7 11 4 6 1028.2 1028.3 0.0
28/01:30am 7.1 4.9 6.4 95 0.3 NNW 7 11 4 6 1028.4 1028.5 0.0
28/01:00am 7.5 5.1 6.8 95 0.3 N 9 13 5 7 1028.5 1028.6 0.0
28/12:30am 7.4 4.9 6.7 95 0.3 N 9 13 5 7 1028.5 1028.6 0.0
28/12:00am 7.5 5.6 6.6 94 0.4 NNW 6 7 3 4 1028.8 1028.9 0.0
 
Date/Time
EST
Temp
°C
App
Temp
°C
Dew
Point
Rel
Hum
%
Delta-T
°C
Wind Press
QNH
hPa
Press
MSL
hPa
Rain
since 9 am
mm
Dir
 
Spd
km/h
Gust
km/h
Spd
kts
Gust
kts
27/11:30pm 7.8 6.3 6.9 94 0.4 NNW 4 6 2 3 1028.8 1028.9 0.0
27/11:00pm 8.0 7.3 6.9 93 0.5 CALM 0 0 0 0 1028.7 1028.8 0.0
27/10:30pm 8.4 7.8 7.2 92 0.6 NNW 0 0 0 0 1028.7 1028.8 0.0
27/10:00pm 8.9 8.4 7.7 92 0.6 CALM 0 0 0 0 1028.7 1028.8 0.0
27/09:30pm 9.5 9.1 8.1 91 0.7 CALM 0 0 0 0 1028.6 1028.7 0.0
27/09:00pm 9.9 9.5 8.3 90 0.8 CALM 0 0 0 0 1028.7 1028.8 0.0
27/08:30pm 12.3 12.2 10.7 90 0.8 S 2 4 1 2 1028.6 1028.7 0.0
27/08:00pm 12.6 12.2 11.0 90 0.8 SSW 4 6 2 3 1028.5 1028.6 0.0
27/07:30pm 12.7 11.9 10.9 89 0.9 SSW 6 7 3 4 1028.3 1028.4 0.0
27/07:00pm 12.1 11.4 10.0 87 1.1 SSW 4 4 2 2 1028.0 1028.1 0.0
27/06:30pm 12.3 11.9 9.9 85 1.2 SSE 2 4 1 2 1027.8 1027.9 0.0
27/06:00pm 12.8 12.0 9.8 82 1.5 SSE 4 6 2 3 1027.5 1027.6 0.0
27/05:30pm 13.8 13.2 10.4 80 1.8 SSE 4 6 2 3 1027.3 1027.4 0.0
27/05:00pm 14.4 13.5 10.6 78 2.0 S 6 7 3 4 1027.1 1027.2 0.0
27/04:30pm 14.9 13.9 10.9 77 2.1 S 7 9 4 5 1026.9 1027.0 0.0
27/04:00pm 15.0 14.1 10.6 75 2.3 S 6 9 3 5 1026.8 1026.9 0.0
27/03:30pm 15.5 14.7 11.1 75 2.3 SSW 6 9 3 5 1026.8 1026.9 0.0
27/03:00pm 15.6 14.7 11.4 76 2.2 SSW 7 9 4 5 1026.8 1026.9 0.0
27/02:30pm 15.7 15.0 11.5 76 2.3 SSW 6 7 3 4 1026.7 1026.8 0.0
27/02:00pm 15.3 14.9 11.1 76 2.2 SSW 4 6 2 3 1026.8 1026.9 0.0
27/01:30pm 15.5 14.3 11.7 78 2.1 SW 9 11 5 6 1027.2 1027.3 0.0
27/01:00pm 15.2 13.6 11.4 78 2.0 SW 11 15 6 8 1027.4 1027.5 0.0
27/12:30pm 15.9 15.4 12.1 78 2.1 SW 6 9 3 5 1027.5 1027.6 0.0
27/12:00pm 14.8 14.1 11.9 83 1.6 SW 7 9 4 5 1027.9 1028.0 0.0
27/11:30am 14.3 13.7 11.8 85 1.3 SW 6 9 3 5 1028.1 1028.2 0.0
27/11:00am 15.9 15.9 13.6 86 1.3 WNW 6 9 3 5 1028.2 1028.3 0.0
27/10:30am 14.8 14.8 13.5 92 0.7 NW 6 11 3 6 1028.1 1028.2 0.0
27/10:00am 12.7 12.0 12.1 96 0.3 NNW 7 11 4 6 1028.2 1028.3 0.0
27/09:30am 11.1 10.2 10.8 98 0.2 N 6 11 3 6 1028.1 1028.2 0.0
27/09:00am 9.2 7.8 8.9 98 0.1 N 6 9 3 5 1028.0 1028.1 0.4
27/08:30am 7.4 5.0 7.1 98 0.1 N 9 13 5 7 1027.8 1027.9 0.4
27/08:00am 5.9 3.2 5.6 98 0.1 N 9 13 5 7 1027.4 1027.5 0.4
27/07:30am 4.7 2.3 4.4 98 0.1 N 6 9 3 5 1027.2 1027.3 0.4
27/07:00am 4.3 2.2 3.9 97 0.2 N 4 7 2 4 1027.1 1027.2 0.4
27/06:30am 4.9 2.5 4.5 97 0.2 N 6 7 3 4 1026.7 1026.8 0.2
27/06:00am 5.2 2.9 4.8 97 0.2 NNE 6 7 3 4 1026.4 1026.5 0.2
27/05:30am 5.0 3.0 4.6 97 0.2 N 4 6 2 3 1026.3 1026.4 0.2
27/05:00am 5.8 4.0 5.4 97 0.2 NNE 4 7 2 4 1026.2 1026.3 0.2
27/04:30am 6.0 3.9 5.6 97 0.2 N 6 9 3 5 1026.1 1026.2 0.2
27/04:00am 6.5 4.5 6.1 97 0.2 N 6 9 3 5 1026.0 1026.1 0.2
27/03:30am 7.5 5.5 7.1 97 0.2 N 7 11 4 6 1026.1 1026.2 0.2
27/03:00am 8.2 5.6 7.8 97 0.2 N 11 15 6 8 1026.2 1026.3 0.2
27/02:30am 8.4 5.9 8.0 97 0.2 N 11 17 6 9 1026.4 1026.5 0.2
27/02:00am 8.8 6.3 8.4 97 0.2 N 11 15 6 8 1026.4 1026.5 0.2
27/01:30am 8.9 6.5 8.5 97 0.2 N 11 15 6 8 1026.3 1026.4 0.2
27/01:00am 8.9 6.8 8.3 96 0.3 N 9 15 5 8 1026.6 1026.7 0.2
27/12:30am 8.8 6.7 8.2 96 0.3 N 9 17 5 9 1026.7 1026.8 0.2
27/12:00am 8.6 6.4 7.8 95 0.4 N 9 15 5 8 1026.6 1026.7 0.0
 
Date/Time
EST
Temp
°C
App
Temp
°C
Dew
Point
Rel
Hum
%
Delta-T
°C
Wind Press
QNH
hPa
Press
MSL
hPa
Rain
since 9 am
mm
Dir
 
Spd
km/h
Gust
km/h
Spd
kts
Gust
kts
26/11:30pm 8.8 7.0 8.0 95 0.4 N 7 11 4 6 1026.4 1026.5 0.0
26/11:00pm 9.2 7.7 8.4 95 0.4 NNE 6 7 3 4 1026.3 1026.4 0.0
26/10:30pm 9.1 7.5 8.2 94 0.4 N 6 7 3 4 1026.4 1026.5 0.0
26/10:00pm 9.9 8.5 9.0 94 0.4 N 6 9 3 5 1026.5 1026.6 0.0
26/09:30pm 10.8 9.7 9.9 94 0.5 NNE 6 7 3 4 1026.4 1026.5 0.0
26/09:00pm 11.0 10.3 9.9 93 0.6 NNE 4 6 2 3 1026.6 1026.7 0.0
26/08:30pm 12.0 11.9 10.9 93 0.6 NE 2 4 1 2 1026.5 1026.6 0.0
26/08:00pm 12.2 11.8 11.1 93 0.6 E 4 7 2 4 1026.5 1026.6 0.0
26/07:30pm 12.3 11.3 11.0 92 0.7 E 7 9 4 5 1026.2 1026.3 0.0
26/07:00pm 12.4 11.6 11.0 91 0.7 E 6 9 3 5 1026.2 1026.3 0.0
26/06:30pm 12.6 11.6 11.0 90 0.8 ESE 7 11 4 6 1026.1 1026.2 0.0
26/06:00pm 13.0 11.3 11.2 89 0.9 SE 11 17 6 9 1026.0 1026.1 0.0
26/05:30pm 13.6 12.0 11.5 87 1.1 SE 11 15 6 8 1025.8 1025.9 0.0
26/05:00pm 14.1 12.1 11.6 85 1.3 SE 13 19 7 10 1025.7 1025.8 0.0
26/04:30pm 14.4 12.1 11.7 84 1.4 SE 15 20 8 11 1025.6 1025.7 0.0
26/04:00pm 14.9 12.3 12.0 83 1.6 SE 17 20 9 11 1025.7 1025.8 0.0
26/03:30pm 15.2 13.0 12.0 81 1.7 SE 15 19 8 10 1025.9 1026.0 0.0
26/03:00pm 15.3 12.7 12.1 81 1.7 SE 17 20 9 11 1026.1 1026.2 0.0
26/02:30pm 15.4 13.2 12.0 80 1.8 ESE 15 22 8 12 1026.1 1026.2 0.0
26/02:00pm 15.3 13.5 12.1 81 1.7 ESE 13 19 7 10 1026.5 1026.6 0.0
26/01:30pm 15.2 13.2 11.6 79 1.9 ESE 13 20 7 11 1026.7 1026.8 0.0
26/01:00pm 14.8 13.2 11.4 80 1.8 ESE 11 15 6 8 1027.3 1027.4 0.0
26/12:30pm 15.5 14.4 11.9 79 2.0 E 9 17 5 9 1027.9 1028.0 0.0
26/12:00pm 14.8 13.6 11.6 81 1.7 E 9 15 5 8 1028.4 1028.5 0.0
26/11:30am 14.5 13.8 12.0 85 1.4 E 7 9 4 5 1028.6 1028.7 0.0
26/11:00am 13.8 13.3 12.0 89 1.0 E 6 7 3 4 1029.0 1029.1 0.0
26/10:30am 12.1 12.3 10.7 91 0.7 CALM 0 4 0 2 1029.2 1029.3 0.0
26/10:00am 11.8 11.3 10.7 93 0.6 NE 4 6 2 3 1029.5 1029.6 0.0
26/09:30am 10.8 10.8 9.9 94 0.5 CALM 0 2 0 1 1029.5 1029.6 0.0
26/09:00am 9.0 8.5 7.9 93 0.5 CALM 0 2 0 1 1029.7 1029.8 0.0
26/08:30am 8.0 6.5 6.9 93 0.5 N 4 4 2 2 1029.7 1029.8 0.0
26/08:00am 7.1 5.8 6.0 93 0.5 NNW 2 4 1 2 1029.4 1029.5 0.0
26/07:30am 5.7 3.3 4.5 92 0.5 NNW 6 7 3 4 1029.2 1029.3 0.0
26/07:00am 5.2 2.7 3.7 90 0.6 NNW 6 9 3 5 1028.8 1028.9 0.0
26/06:30am 6.3 4.0 4.6 89 0.7 N 6 6 3 3 1028.4 1028.5 0.0
26/06:00am 7.9 6.5 5.7 86 1.0 NE 2 6 1 3 1028.3 1028.4 0.0
26/05:30am 10.6 8.6 8.7 88 0.9 ESE 9 11 5 6 1028.2 1028.3 0.0
26/05:00am 10.7 8.0 8.8 88 0.9 ESE 13 17 7 9 1028.1 1028.2 0.0
26/04:30am 10.6 8.3 8.9 89 0.8 ESE 11 15 6 8 1028.2 1028.3 0.0
26/04:00am 10.5 8.2 8.9 90 0.8 ESE 11 15 6 8 1028.4 1028.5 0.0
26/03:30am 10.4 8.1 9.0 91 0.7 E 11 15 6 8 1028.5 1028.6 0.0
26/03:00am 10.1 8.2 8.9 92 0.6 ESE 9 15 5 8 1028.9 1029.0 0.0
26/02:30am 8.4 6.9 6.9 90 0.7 NE 4 6 2 3 1029.1 1029.2 0.0
26/02:00am 8.8 7.4 7.1 89 0.8 NE 4 4 2 2 1029.3 1029.4 0.0
26/01:30am 11.1 9.3 9.4 89 0.9 E 9 13 5 7 1029.2 1029.3 0.0
26/01:00am 11.2 9.4 9.3 88 0.9 E 9 13 5 7 1029.4 1029.5 0.0
26/12:30am 11.5 9.7 9.6 88 1.0 E 9 13 5 7 1029.5 1029.6 0.0
26/12:00am 11.9 10.2 10.0 88 1.0 ESE 9 15 5 8 1029.6 1029.7 0.0
 
Date/Time
EST
Temp
°C
App
Temp
°C
Dew
Point
Rel
Hum
%
Delta-T
°C
Wind Press
QNH
hPa
Press
MSL
hPa
Rain
since 9 am
mm
Dir
 
Spd
km/h
Gust
km/h
Spd
kts
Gust
kts
25/11:30pm 11.4 9.6 9.3 87 1.1 ESE 9 13 5 7 1029.7 1029.8 0.0
25/11:00pm 11.7 9.5 9.4 86 1.1 ESE 11 17 6 9 1029.7 1029.8 0.0
25/10:30pm 11.9 9.4 9.6 86 1.2 ESE 13 19 7 10 1029.7 1029.8 0.0
25/10:00pm 11.9 9.4 9.6 86 1.2 ESE 13 20 7 11 1029.6 1029.7 0.0
25/09:30pm 11.8 8.9 9.5 86 1.2 ESE 15 20 8 11 1029.8 1029.9 0.0
25/09:00pm 12.0 9.1 9.7 86 1.2 ESE 15 20 8 11 1029.9 1030.0 0.0
25/08:30pm 12.0 8.7 9.6 85 1.2 ESE 17 24 9 13 1029.8 1029.9 0.0
25/08:00pm 12.1 8.8 9.7 85 1.2 ESE 17 22 9 12 1029.7 1029.8 0.0
25/07:30pm 12.2 8.6 9.8 85 1.2 SE 19 24 10 13 1029.6 1029.7 0.0
25/07:00pm 12.3 8.5 9.7 84 1.3 SE 20 26 11 14 1029.5 1029.6 0.0
25/06:30pm 12.3 8.5 9.7 84 1.3 SE 20 24 11 13 1029.4 1029.5 0.0
25/06:00pm 12.6 8.8 9.8 83 1.4 SE 20 26 11 14 1029.1 1029.2 0.0
25/05:30pm 13.0 9.4 9.8 81 1.6 SSE 19 24 10 13 1029.0 1029.1 0.0
25/05:00pm 13.4 9.6 9.8 79 1.8 SSE 20 26 11 14 1028.8 1028.9 0.0
25/04:30pm 13.7 9.5 9.9 78 2.0 SSE 22 28 12 15 1028.8 1028.9 0.0
25/04:00pm 14.3 10.6 10.3 77 2.1 SSE 20 30 11 16 1028.8 1028.9 0.0
25/03:30pm 14.7 11.1 10.7 77 2.1 SSE 20 26 11 14 1028.6 1028.7 0.0

Other Formats:

Comma delimited format used in spreadsheet applications
http://www.bom.gov.au/fwo/IDV60801/IDV60801.94830.axf

JavaScript Object Notation format (JSON) in row-major order
http://www.bom.gov.au/fwo/IDV60801/IDV60801.94830.json